createdAt,value
2019-05-06T00:00:24.498Z,95.93
2019-05-06T00:01:23.938Z,95.83
2019-05-06T00:02:24.527Z,95.93
2019-05-06T00:03:24.724Z,95.83
2019-05-06T00:04:24.655Z,95.64
2019-05-06T00:05:25.064Z,95.17
2019-05-06T00:06:23.637Z,94.98
2019-05-06T00:07:24.251Z,94.6
2019-05-06T00:08:23.635Z,94.42
2019-05-06T00:09:24.007Z,94.13
2019-05-06T00:10:24.512Z,94.04
2019-05-06T00:11:23.803Z,94.04
2019-05-06T00:12:23.928Z,94.32
2019-05-06T00:13:24.118Z,94.51
2019-05-06T00:14:23.518Z,94.32
2019-05-06T00:15:25.843Z,94.37
2019-05-06T00:16:23.747Z,94.56
2019-05-06T00:17:23.910Z,94.65
2019-05-06T00:18:24.490Z,94.65
2019-05-06T00:19:24.629Z,94.93
2019-05-06T00:20:24.259Z,94.98
2019-05-06T00:21:24.349Z,94.89
2019-05-06T00:22:23.736Z,94.98
2019-05-06T00:23:24.815Z,94.98
2019-05-06T00:24:23.843Z,94.98
2019-05-06T00:25:24.238Z,94.98
2019-05-06T00:26:24.308Z,94.89
2019-05-06T00:27:24.661Z,94.89
2019-05-06T00:28:24.400Z,94.89
2019-05-06T00:29:24.172Z,94.89
2019-05-06T00:30:24.255Z,94.7
2019-05-06T00:31:23.947Z,94.79
2019-05-06T00:32:24.265Z,94.79
2019-05-06T00:33:24.247Z,94.7
2019-05-06T00:34:24.455Z,94.79
2019-05-06T00:35:23.419Z,94.79
2019-05-06T00:36:23.698Z,94.98
2019-05-06T00:37:24.071Z,94.89
2019-05-06T00:38:24.472Z,94.7
2019-05-06T00:39:24.320Z,94.65
2019-05-06T00:40:24.344Z,94.74
2019-05-06T00:41:24.547Z,94.84
2019-05-06T00:42:24.513Z,95.03
2019-05-06T00:43:23.562Z,94.93
2019-05-06T00:44:23.869Z,94.93
2019-05-06T00:45:24.334Z,94.93
2019-05-06T00:46:24.264Z,94.93
2019-05-06T00:47:24.544Z,94.74
2019-05-06T00:48:24.362Z,94.74
2019-05-06T00:49:23.772Z,94.74
2019-05-06T00:50:23.885Z,94.74
2019-05-06T00:51:24.130Z,94.84
2019-05-06T00:52:26.046Z,94.84
2019-05-06T00:53:23.799Z,94.79
2019-05-06T00:54:22.450Z,94.7
2019-05-06T00:55:24.118Z,94.6
2019-05-06T00:56:24.283Z,94.42
2019-05-06T00:57:23.381Z,94.13
2019-05-06T00:58:23.772Z,94.08
2019-05-06T00:59:23.798Z,94.18
2019-05-06T01:00:24.161Z,94.18
2019-05-06T01:01:31.344Z,94.08
2019-05-06T01:02:23.418Z,94.08
2019-05-06T01:03:23.780Z,94.08
2019-05-06T01:04:24.365Z,94.08
2019-05-06T01:05:24.213Z,94.08
2019-05-06T01:06:24.538Z,94.08
2019-05-06T01:07:23.591Z,94.18
2019-05-06T01:08:23.927Z,94.18
2019-05-06T01:09:23.451Z,94.18
2019-05-06T01:10:23.792Z,94.18
2019-05-06T01:11:23.844Z,94.27
2019-05-06T01:12:23.958Z,94.27
2019-05-06T01:13:24.117Z,93.99
2019-05-06T01:14:23.499Z,93.99
2019-05-06T01:15:23.825Z,94.27
2019-05-06T01:16:22.247Z,94.37
2019-05-06T01:17:23.836Z,94.46
2019-05-06T01:18:24.367Z,94.65
2019-05-06T01:19:23.531Z,94.84
2019-05-06T01:20:22.206Z,94.84
2019-05-06T01:21:23.770Z,94.93
2019-05-06T01:22:24.488Z,95.03
2019-05-06T01:23:23.443Z,95.21
2019-05-06T01:24:23.798Z,95.31
2019-05-06T01:25:23.735Z,95.21
2019-05-06T01:26:23.685Z,95.21
2019-05-06T01:27:24.029Z,95.12
2019-05-06T01:28:22.129Z,95.03
2019-05-06T01:29:24.015Z,95.12
2019-05-06T01:30:24.159Z,95.21
2019-05-06T01:31:22.103Z,95.21
2019-05-06T01:32:23.619Z,95.31
2019-05-06T01:33:24.116Z,95.4
2019-05-06T01:34:24.322Z,95.5
2019-05-06T01:35:22.070Z,95.5
2019-05-06T01:36:22.056Z,95.59
2019-05-06T01:37:23.967Z,95.78
2019-05-06T01:38:24.052Z,95.97
2019-05-06T01:39:22.033Z,96.16
2019-05-06T01:40:23.706Z,96.26
2019-05-06T01:41:24.248Z,96.64
2019-05-06T01:42:22.002Z,96.73
2019-05-06T01:43:23.984Z,96.83
2019-05-06T01:44:21.979Z,96.83
2019-05-06T01:45:23.734Z,97.11
2019-05-06T01:46:21.960Z,97.11
2019-05-06T01:47:23.738Z,97.11
2019-05-06T01:48:21.942Z,97.02
2019-05-06T01:49:21.939Z,97.11
2019-05-06T01:50:23.485Z,97.49
2019-05-06T01:51:23.789Z,97.77
2019-05-06T01:52:23.810Z,97.96
2019-05-06T01:53:21.897Z,98.15
2019-05-06T01:54:21.887Z,98.25
2019-05-06T01:55:23.677Z,98.15
2019-05-06T01:56:23.958Z,98.25
2019-05-06T01:57:21.860Z,98.53
2019-05-06T01:58:23.796Z,98.91
2019-05-06T01:59:21.836Z,99.1
2019-05-06T02:00:23.646Z,99.29
2019-05-06T02:01:21.833Z,99.29
2019-05-06T02:02:23.845Z,99.29
2019-05-06T02:03:21.803Z,99.29
2019-05-06T02:04:21.793Z,98.91
2019-05-06T02:05:21.783Z,98.82
2019-05-06T02:06:21.772Z,98.91
2019-05-06T02:07:23.925Z,98.91
2019-05-06T02:08:21.757Z,99.01
2019-05-06T02:09:21.746Z,99.19
2019-05-06T02:10:23.700Z,99.29
2019-05-06T02:11:21.729Z,99.48
2019-05-06T02:12:21.721Z,99.66
2019-05-06T02:13:23.400Z,99.85
2019-05-06T02:14:21.698Z,99.99
2019-05-06T02:15:23.380Z,99.99
2019-05-06T02:16:23.821Z,99.99
2019-05-06T02:17:23.682Z,99.99
2019-05-06T02:18:21.664Z,99.99
2019-05-06T02:19:21.650Z,99.99
2019-05-06T02:20:21.694Z,99.99
2019-05-06T02:21:24.351Z,99.99
2019-05-06T02:22:21.628Z,99.99
2019-05-06T02:23:21.614Z,99.99
2019-05-06T02:24:21.608Z,99.99
2019-05-06T02:25:21.599Z,99.99
2019-05-06T02:26:23.768Z,99.99
2019-05-06T02:27:21.573Z,99.99
2019-05-06T02:28:23.475Z,99.99
2019-05-06T02:29:21.555Z,99.99
2019-05-06T02:30:24.997Z,99.99
2019-05-06T02:31:21.539Z,99.99
2019-05-06T02:32:31.290Z,99.99
2019-05-06T02:33:24.093Z,99.99
2019-05-06T02:34:21.516Z,99.99
2019-05-06T02:35:21.502Z,99.99
2019-05-06T02:36:21.504Z,99.99
2019-05-06T02:37:21.489Z,99.99
2019-05-06T02:38:23.253Z,99.99
2019-05-06T02:39:23.478Z,99.99
2019-05-06T02:40:24.621Z,99.99
2019-05-06T02:41:23.220Z,99.99
2019-05-06T02:42:23.845Z,99.99
2019-05-06T02:43:23.030Z,99.99
2019-05-06T02:44:23.781Z,99.99
2019-05-06T02:45:23.870Z,99.99
2019-05-06T02:46:23.737Z,99.99
2019-05-06T02:47:22.991Z,99.99
2019-05-06T02:48:22.866Z,99.99
2019-05-06T02:49:23.656Z,99.99
2019-05-06T02:50:23.887Z,99.99
2019-05-06T02:51:24.032Z,99.99
2019-05-06T02:52:22.832Z,99.99
2019-05-06T02:53:23.561Z,99.99
2019-05-06T02:54:23.386Z,99.99
2019-05-06T02:55:23.536Z,99.99
2019-05-06T02:56:23.682Z,99.99
2019-05-06T02:57:23.710Z,99.99
2019-05-06T02:58:23.665Z,99.99
2019-05-06T02:59:23.994Z,99.99
2019-05-06T03:00:23.758Z,99.99
2019-05-06T03:01:23.247Z,99.99
2019-05-06T03:02:44.511Z,99.99
2019-05-06T03:03:23.217Z,99.99
2019-05-06T03:04:23.588Z,99.99
2019-05-06T03:05:23.680Z,99.99
2019-05-06T03:06:23.734Z,99.99
2019-05-06T03:07:23.282Z,99.99
2019-05-06T03:08:23.625Z,99.99
2019-05-06T03:09:23.262Z,99.99
2019-05-06T03:10:24.152Z,99.99
2019-05-06T03:11:23.592Z,99.99
2019-05-06T03:12:22.796Z,99.99
2019-05-06T03:13:23.561Z,99.99
2019-05-06T03:14:23.327Z,99.99
2019-05-06T03:15:23.872Z,99.99
2019-05-06T03:16:23.706Z,99.99
2019-05-06T03:17:23.400Z,99.99
2019-05-06T03:18:23.516Z,99.99
2019-05-06T03:19:23.956Z,99.99
2019-05-06T03:20:23.424Z,99.99
2019-05-06T03:21:24.432Z,99.99
2019-05-06T03:22:23.952Z,99.99
2019-05-06T03:23:23.610Z,99.99
2019-05-06T03:24:23.617Z,99.99
2019-05-06T03:25:23.733Z,99.99
2019-05-06T03:26:23.486Z,99.99
2019-05-06T03:27:23.340Z,99.99
2019-05-06T03:28:22.538Z,99.99
2019-05-06T03:29:20.992Z,99.99
2019-05-06T03:30:25.310Z,99.99
2019-05-06T03:31:25.675Z,99.99
2019-05-06T03:32:37.523Z,99.99
2019-05-06T03:35:14.609Z,99.99
2019-05-06T03:36:40.570Z,99.99
2019-05-06T03:37:26.900Z,99.99
2019-05-06T03:38:26.889Z,99.99
2019-05-06T03:39:26.881Z,99.99
2019-05-06T03:40:26.878Z,99.99
2019-05-06T03:41:29.269Z,99.99
2019-05-06T03:42:26.856Z,99.99
2019-05-06T03:43:26.862Z,99.99
2019-05-06T03:44:26.844Z,99.99
2019-05-06T03:45:26.830Z,99.99
2019-05-06T03:46:26.823Z,99.99
2019-05-06T03:47:26.832Z,99.99
2019-05-06T03:48:26.807Z,99.99
2019-05-06T03:49:26.790Z,99.99
2019-05-06T03:50:26.786Z,99.99
2019-05-06T03:51:26.801Z,99.99
2019-05-06T03:52:26.766Z,99.99
2019-05-06T03:53:26.508Z,99.99
2019-05-06T03:54:26.749Z,99.99
2019-05-06T03:55:26.748Z,99.99
2019-05-06T03:56:26.731Z,99.99
2019-05-06T03:57:26.711Z,99.99
2019-05-06T03:58:29.317Z,99.99
2019-05-06T03:59:26.698Z,99.99
2019-05-06T04:00:26.684Z,99.99
2019-05-06T04:01:26.793Z,99.99
2019-05-06T04:02:26.740Z,99.99
2019-05-06T04:03:51.273Z,99.99
2019-05-06T04:04:26.654Z,99.99
2019-05-06T04:05:26.639Z,99.99
2019-05-06T04:06:26.765Z,99.99
2019-05-06T04:07:26.621Z,99.99
2019-05-06T04:08:26.706Z,99.99
2019-05-06T04:09:26.734Z,99.99
2019-05-06T04:10:26.594Z,99.99
2019-05-06T04:11:26.584Z,99.99
2019-05-06T04:12:26.640Z,99.99
2019-05-06T04:13:26.564Z,99.99
2019-05-06T04:14:26.557Z,99.99
2019-05-06T04:15:29.305Z,99.99
2019-05-06T04:16:26.538Z,99.99
2019-05-06T04:17:26.542Z,99.99
2019-05-06T04:18:26.518Z,99.99
2019-05-06T04:19:26.510Z,99.99
2019-05-06T04:20:26.495Z,99.99
2019-05-06T04:21:26.687Z,99.99
2019-05-06T04:22:26.516Z,99.99
2019-05-06T04:23:26.466Z,99.99
2019-05-06T04:24:26.458Z,99.99
2019-05-06T04:25:26.457Z,99.99
2019-05-06T04:26:26.543Z,99.99
2019-05-06T04:27:26.436Z,99.99
2019-05-06T04:28:26.444Z,99.99
2019-05-06T04:29:26.647Z,99.99
2019-05-06T04:30:26.676Z,99.99
2019-05-06T04:31:26.398Z,99.99
2019-05-06T04:32:26.384Z,99.99
2019-05-06T04:33:26.424Z,99.99
2019-05-06T04:34:26.373Z,99.99
2019-05-06T04:35:26.357Z,99.99
2019-05-06T04:36:26.409Z,99.99
2019-05-06T04:37:26.769Z,99.99
2019-05-06T04:38:26.444Z,99.99
2019-05-06T04:39:26.325Z,99.99
2019-05-06T04:40:26.579Z,99.99
2019-05-06T04:41:29.246Z,99.99
2019-05-06T04:42:29.531Z,99.99
2019-05-06T04:43:29.470Z,99.99
2019-05-06T04:44:26.553Z,99.99
2019-05-06T04:45:26.350Z,99.99
2019-05-06T04:46:26.285Z,99.99
2019-05-06T04:47:26.849Z,99.99
2019-05-06T04:48:26.631Z,99.99
2019-05-06T04:49:26.386Z,99.99
2019-05-06T04:50:26.770Z,99.99
2019-05-06T04:51:27.286Z,99.99
2019-05-06T04:52:28.608Z,99.99
2019-05-06T04:53:29.421Z,99.99
2019-05-06T04:54:29.093Z,99.99
2019-05-06T04:55:26.180Z,99.99
2019-05-06T04:56:26.440Z,99.99
2019-05-06T04:57:26.599Z,99.99
2019-05-06T04:58:26.144Z,99.99
2019-05-06T04:59:26.126Z,99.99
2019-05-06T05:00:26.131Z,99.99
2019-05-06T05:01:26.115Z,99.99
2019-05-06T05:02:26.103Z,99.99
2019-05-06T05:03:26.088Z,99.99
2019-05-06T05:04:36.681Z,99.99
2019-05-06T05:05:26.074Z,99.99
2019-05-06T05:06:26.478Z,99.99
2019-05-06T05:07:26.055Z,99.99
2019-05-06T05:08:26.054Z,99.99
2019-05-06T05:09:26.045Z,99.99
2019-05-06T05:10:26.027Z,99.99
2019-05-06T05:11:26.066Z,99.99
2019-05-06T05:12:26.011Z,99.99
2019-05-06T05:13:26.017Z,99.99
2019-05-06T05:14:28.499Z,99.99
2019-05-06T05:15:26.025Z,99.99
2019-05-06T05:16:25.719Z,99.99
2019-05-06T05:17:25.965Z,99.99
2019-05-06T05:18:25.952Z,99.99
2019-05-06T05:19:25.945Z,99.99
2019-05-06T05:20:43.765Z,99.99
2019-05-06T05:21:25.924Z,99.99
2019-05-06T05:22:25.912Z,99.99
2019-05-06T05:23:25.904Z,99.99
2019-05-06T05:24:25.984Z,99.99
2019-05-06T05:25:25.887Z,99.99
2019-05-06T05:26:25.878Z,99.99
2019-05-06T05:27:25.873Z,99.99
2019-05-06T05:28:25.858Z,99.99
2019-05-06T05:29:25.846Z,99.71
2019-05-06T05:30:25.846Z,99.81
2019-05-06T05:31:25.837Z,99.9
2019-05-06T05:32:29.138Z,99.9
2019-05-06T05:33:25.814Z,99.9
2019-05-06T05:34:40.711Z,99.62
2019-05-06T05:35:25.792Z,99.52
2019-05-06T05:36:25.784Z,99.33
2019-05-06T05:37:25.776Z,99.24
2019-05-06T05:38:25.773Z,99.15
2019-05-06T05:39:25.757Z,98.77
2019-05-06T05:40:25.746Z,98.58
2019-05-06T05:41:25.779Z,98.58
2019-05-06T05:42:25.733Z,98.54
2019-05-06T05:43:25.718Z,98.54
2019-05-06T05:44:25.705Z,98.44
2019-05-06T05:45:25.700Z,98.44
2019-05-06T05:46:25.689Z,98.06
2019-05-06T05:47:25.681Z,97.78
2019-05-06T05:48:25.810Z,97.68
2019-05-06T05:49:27.076Z,97.68
2019-05-06T05:50:25.660Z,97.59
2019-05-06T05:51:25.640Z,97.4
2019-05-06T05:52:25.638Z,96.83
2019-05-06T05:53:25.621Z,96.73
2019-05-06T05:54:25.715Z,96.55
2019-05-06T05:55:25.606Z,96.17
2019-05-06T05:56:26.476Z,95.88
2019-05-06T05:57:25.587Z,95.79
2019-05-06T05:58:27.494Z,95.79
2019-05-06T05:59:25.783Z,95.69
2019-05-06T06:00:25.580Z,95.69
2019-05-06T06:01:25.827Z,95.12
2019-05-06T06:02:25.538Z,94.27
2019-05-06T06:03:25.526Z,93.51
2019-05-06T06:04:25.521Z,92.85
2019-05-06T06:05:25.509Z,92.28
2019-05-06T06:06:25.493Z,92.19
2019-05-06T06:07:25.490Z,92.09
2019-05-06T06:08:27.245Z,92
2019-05-06T06:09:25.503Z,91.95
2019-05-06T06:10:25.460Z,91.85
2019-05-06T06:11:25.477Z,91.66
2019-05-06T06:12:25.511Z,91.47
2019-05-06T06:13:25.432Z,90.91
2019-05-06T06:14:25.452Z,90.24
2019-05-06T06:15:25.415Z,89.86
2019-05-06T06:16:25.705Z,89.58
2019-05-06T06:17:25.716Z,89.2
2019-05-06T06:18:25.384Z,89.11
2019-05-06T06:19:25.381Z,88.82
2019-05-06T06:20:25.361Z,88.44
2019-05-06T06:21:32.187Z,87.97
2019-05-06T06:22:25.353Z,87.73
2019-05-06T06:23:25.536Z,87.25
2019-05-06T06:24:25.333Z,86.59
2019-05-06T06:25:26.167Z,86.3
2019-05-06T06:26:25.316Z,85.83
2019-05-06T06:27:25.306Z,85.55
2019-05-06T06:28:25.295Z,85.07
2019-05-06T06:29:25.320Z,83.94
2019-05-06T06:30:25.274Z,83.65
2019-05-06T06:31:25.560Z,83.55
2019-05-06T06:32:25.667Z,83.08
2019-05-06T06:33:25.253Z,82.6
2019-05-06T06:34:25.240Z,82.13
2019-05-06T06:35:25.337Z,82.04
2019-05-06T06:36:25.595Z,81.94
2019-05-06T06:37:25.208Z,82.13
2019-05-06T06:38:26.311Z,82.23
2019-05-06T06:39:25.353Z,82.42
2019-05-06T06:40:25.183Z,82.32
2019-05-06T06:41:25.160Z,82.32
2019-05-06T06:42:25.162Z,82.42
2019-05-06T06:43:25.436Z,82.23
2019-05-06T06:44:25.145Z,82.23
2019-05-06T06:45:25.568Z,81.94
2019-05-06T06:46:25.134Z,82.13
2019-05-06T06:47:25.118Z,82.42
2019-05-06T06:48:27.861Z,82.32
2019-05-06T06:49:25.102Z,82.04
2019-05-06T06:50:25.091Z,82.04
2019-05-06T06:51:25.885Z,81.85
2019-05-06T06:52:25.653Z,81.75
2019-05-06T06:53:24.813Z,80.99
2019-05-06T06:54:25.355Z,79.38
2019-05-06T06:55:25.075Z,78.43
2019-05-06T06:56:25.036Z,78.24
2019-05-06T06:57:25.021Z,77.96
2019-05-06T06:58:25.267Z,77.67
2019-05-06T06:59:25.005Z,77.01
2019-05-06T07:00:25.197Z,76.82
2019-05-06T07:01:25.977Z,76.44
2019-05-06T07:02:25.490Z,75.96
2019-05-06T07:03:24.972Z,75.59
2019-05-06T07:04:25.586Z,75.59
2019-05-06T07:05:32.949Z,75.02
2019-05-06T07:06:24.947Z,74.83
2019-05-06T07:07:39.503Z,74.73
2019-05-06T07:08:37.785Z,74.92
2019-05-06T07:09:25.680Z,75.02
2019-05-06T07:10:24.906Z,75.11
2019-05-06T07:11:25.072Z,75.02
2019-05-06T07:12:25.935Z,74.83
2019-05-06T07:13:25.676Z,74.83
2019-05-06T07:14:25.142Z,74.45
2019-05-06T07:15:24.863Z,74.01
2019-05-06T07:16:26.048Z,73.63
2019-05-06T07:17:25.322Z,73.07
2019-05-06T07:18:25.109Z,72.49
2019-05-06T07:19:25.406Z,72.3
2019-05-06T07:20:25.510Z,72.11
2019-05-06T07:21:24.976Z,71.92
2019-05-06T07:22:25.620Z,72.06
2019-05-06T07:23:24.816Z,71.01
2019-05-06T07:24:25.399Z,69.96
2019-05-06T07:25:25.167Z,69.21
2019-05-06T07:26:26.300Z,69.02
2019-05-06T07:27:25.298Z,68.83
2019-05-06T07:28:25.319Z,67.91
2019-05-06T07:29:28.856Z,67.44
2019-05-06T07:30:25.457Z,67.06
2019-05-06T07:31:28.877Z,66.11
2019-05-06T07:32:25.655Z,65.79
2019-05-06T07:33:25.419Z,65.54
2019-05-06T07:34:25.389Z,64.97
2019-05-06T07:35:41.046Z,64.78
2019-05-06T07:36:25.297Z,64.97
2019-05-06T07:37:24.704Z,65.16
2019-05-06T07:38:25.702Z,65.25
2019-05-06T07:39:26.541Z,65.25
2019-05-06T07:40:24.631Z,64.97
2019-05-06T07:41:25.967Z,64.3
2019-05-06T07:42:25.276Z,63.92
2019-05-06T07:43:24.610Z,63.92
2019-05-06T07:44:24.980Z,63.95
2019-05-06T07:45:24.588Z,63.57
2019-05-06T07:46:26.000Z,63.01
2019-05-06T07:47:26.457Z,63.1
2019-05-06T07:48:24.590Z,62.91
2019-05-06T07:49:26.104Z,63.01
2019-05-06T07:50:24.860Z,63.45
2019-05-06T07:51:26.333Z,63.92
2019-05-06T07:52:25.543Z,63.83
2019-05-06T07:53:24.887Z,63.73
2019-05-06T07:54:24.568Z,63.73
2019-05-06T07:55:25.424Z,64.4
2019-05-06T07:56:24.986Z,64.78
2019-05-06T07:57:24.567Z,64.4
2019-05-06T07:58:25.096Z,64.11
2019-05-06T07:59:25.064Z,63.83
2019-05-06T08:00:25.456Z,63.73
2019-05-06T08:01:28.459Z,63.73
2019-05-06T08:02:26.625Z,63.64
2019-05-06T08:03:24.728Z,63.64
2019-05-06T08:04:25.529Z,63.83
2019-05-06T08:05:24.862Z,64.02
2019-05-06T08:06:25.164Z,64.11
2019-05-06T08:07:24.815Z,64.11
2019-05-06T08:08:25.557Z,63.73
2019-05-06T08:09:24.631Z,62.97
2019-05-06T08:10:24.477Z,62.31
2019-05-06T08:11:27.993Z,62.43
2019-05-06T08:12:24.881Z,62.15
2019-05-06T08:13:25.092Z,61.77
2019-05-06T08:14:25.006Z,61.29
2019-05-06T08:15:25.092Z,60.63
2019-05-06T08:16:25.092Z,59.71
2019-05-06T08:17:24.707Z,59.49
2019-05-06T08:18:24.425Z,59.49
2019-05-06T08:19:25.247Z,59.11
2019-05-06T08:20:24.693Z,58.92
2019-05-06T08:21:24.844Z,59.01
2019-05-06T08:22:25.238Z,59.14
2019-05-06T08:23:24.560Z,58.66
2019-05-06T08:24:25.196Z,58.37
2019-05-06T08:25:25.459Z,58.09
2019-05-06T08:26:25.001Z,57.71
2019-05-06T08:27:25.213Z,56.95
2019-05-06T08:28:36.831Z,56.1
2019-05-06T08:29:24.972Z,55.9
2019-05-06T08:30:25.580Z,56.67
2019-05-06T08:31:24.957Z,56.6
2019-05-06T08:32:25.272Z,55.93
2019-05-06T08:33:27.294Z,56
2019-05-06T08:34:25.078Z,56.38
2019-05-06T08:35:25.202Z,56.29
2019-05-06T08:36:25.016Z,56.29
2019-05-06T08:37:25.180Z,56.29
2019-05-06T08:38:25.042Z,56.19
2019-05-06T08:39:24.482Z,56.1
2019-05-06T08:40:26.523Z,55.71
2019-05-06T08:41:25.188Z,55.71
2019-05-06T08:42:24.909Z,55.93
2019-05-06T08:43:24.466Z,56.12
2019-05-06T08:44:24.956Z,55.93
2019-05-06T08:45:24.473Z,55.65
2019-05-06T08:46:25.993Z,55.49
2019-05-06T08:47:24.820Z,54.72
2019-05-06T08:48:24.581Z,54.79
2019-05-06T08:49:25.016Z,54.6
2019-05-06T08:50:24.299Z,54.5
2019-05-06T08:51:24.828Z,54.41
2019-05-06T08:52:24.166Z,54.67
2019-05-06T08:53:26.707Z,55.15
2019-05-06T08:54:25.243Z,56.19
2019-05-06T08:55:24.456Z,57.52
2019-05-06T08:56:24.491Z,58.47
2019-05-06T08:57:25.259Z,59.42
2019-05-06T08:58:24.574Z,59.61
2019-05-06T08:59:26.353Z,60.09
2019-05-06T09:00:25.228Z,60.63
2019-05-06T09:01:24.845Z,61.29
2019-05-06T09:02:25.313Z,61.96
2019-05-06T09:03:24.790Z,62.24
2019-05-06T09:04:25.327Z,62.43
2019-05-06T09:05:24.745Z,62.34
2019-05-06T09:06:34.270Z,62.62
2019-05-06T09:07:26.254Z,62.78
2019-05-06T09:08:25.186Z,62.97
2019-05-06T09:09:24.874Z,63.45
2019-05-06T09:10:25.252Z,64.21
2019-05-06T09:11:28.081Z,65.16
2019-05-06T09:12:24.819Z,65.92
2019-05-06T09:13:25.701Z,66.3
2019-05-06T09:14:26.012Z,66.49
2019-05-06T09:15:24.472Z,66.96
2019-05-06T09:16:24.816Z,67.06
2019-05-06T09:17:25.046Z,67.06
2019-05-06T09:18:26.441Z,67.06
2019-05-06T09:19:25.841Z,67.06
2019-05-06T09:20:25.864Z,67.15
2019-05-06T09:21:25.141Z,67.34
2019-05-06T09:22:26.024Z,67.44
2019-05-06T09:23:27.486Z,67.34
2019-05-06T09:24:25.552Z,67.21
2019-05-06T09:25:25.645Z,67.31
2019-05-06T09:26:24.893Z,67.5
2019-05-06T09:27:25.063Z,67.59
2019-05-06T09:28:25.909Z,67.79
2019-05-06T09:29:25.314Z,67.79
2019-05-06T09:30:25.475Z,67.79
2019-05-06T09:31:25.439Z,67.69
2019-05-06T09:32:25.183Z,67.44
2019-05-06T09:33:24.723Z,67.15
2019-05-06T09:34:25.873Z,67.06
2019-05-06T09:35:24.776Z,67.25
2019-05-06T09:36:39.784Z,67.82
2019-05-06T09:37:26.447Z,67.63
2019-05-06T09:38:25.316Z,67.34
2019-05-06T09:39:25.262Z,66.96
2019-05-06T09:40:25.191Z,66.87
2019-05-06T09:41:25.599Z,66.87
2019-05-06T09:42:25.529Z,66.87
2019-05-06T09:43:24.727Z,67.15
2019-05-06T09:44:25.059Z,67.25
2019-05-06T09:45:25.218Z,66.87
2019-05-06T09:46:25.566Z,66.58
2019-05-06T09:47:25.417Z,66.39
2019-05-06T09:48:24.881Z,66.49
2019-05-06T09:49:25.408Z,66.67
2019-05-06T09:50:25.450Z,66.49
2019-05-06T09:51:24.611Z,65.86
2019-05-06T09:52:25.638Z,65.86
2019-05-06T09:53:25.623Z,66.05
2019-05-06T09:54:26.110Z,66.14
2019-05-06T09:55:24.655Z,66.24
2019-05-06T09:56:25.484Z,65.09
2019-05-06T09:57:24.561Z,64.34
2019-05-06T09:58:25.268Z,63.76
2019-05-06T09:59:24.433Z,63.39
2019-05-06T10:00:26.110Z,63.29
2019-05-06T10:01:24.972Z,63.2
2019-05-06T10:02:25.535Z,63.01
2019-05-06T10:03:25.062Z,63.01
2019-05-06T10:04:23.333Z,63.04
2019-05-06T10:05:23.329Z,63.23
2019-05-06T10:06:24.713Z,63.13
2019-05-06T10:07:25.073Z,63.13
2019-05-06T10:08:25.181Z,62.69
2019-05-06T10:09:27.230Z,62.49
2019-05-06T10:10:24.809Z,62.3
2019-05-06T10:11:24.748Z,61.93
2019-05-06T10:12:23.262Z,61.55
2019-05-06T10:13:23.268Z,60.78
2019-05-06T10:14:25.720Z,60.12
2019-05-06T10:15:23.235Z,60.21
2019-05-06T10:16:23.228Z,61.07
2019-05-06T10:17:23.216Z,61.16
2019-05-06T10:18:25.118Z,60.69
2019-05-06T10:19:25.130Z,60.02
2019-05-06T10:20:24.756Z,60.6
2019-05-06T10:21:25.363Z,60.78
2019-05-06T10:22:25.670Z,60.97
2019-05-06T10:23:24.479Z,61.26
2019-05-06T10:24:23.153Z,59.83
2019-05-06T10:25:24.811Z,58.88
2019-05-06T10:26:23.520Z,58.88
2019-05-06T10:27:25.101Z,58.88
2019-05-06T10:28:25.674Z,58.4
2019-05-06T10:29:24.737Z,58.15
2019-05-06T10:30:24.948Z,58.15
2019-05-06T10:31:24.388Z,58.15
2019-05-06T10:32:24.906Z,58.06
2019-05-06T10:33:23.076Z,58.06
2019-05-06T10:34:24.712Z,58.25
2019-05-06T10:35:27.799Z,58.15
2019-05-06T10:36:23.046Z,58.25
2019-05-06T10:37:23.105Z,58.25
2019-05-06T10:38:25.184Z,57.77
2019-05-06T10:39:25.303Z,57.29
2019-05-06T10:40:25.238Z,57.2
2019-05-06T10:41:24.830Z,57.39
2019-05-06T10:42:25.387Z,57.29
2019-05-06T10:43:24.471Z,56.27
2019-05-06T10:44:25.121Z,55.22
2019-05-06T10:45:22.974Z,54.63
2019-05-06T10:46:25.022Z,54.72
2019-05-06T10:47:25.021Z,54.82
2019-05-06T10:48:24.996Z,54.82
2019-05-06T10:49:25.147Z,54.35
2019-05-06T10:50:25.100Z,53.87
2019-05-06T10:51:25.264Z,53.77
2019-05-06T10:52:24.339Z,53.32
2019-05-06T10:53:25.739Z,52.53
2019-05-06T10:54:25.260Z,52.63
2019-05-06T10:55:25.492Z,53.01
2019-05-06T10:56:23.097Z,53.52
2019-05-06T10:57:24.553Z,53.42
2019-05-06T10:58:25.040Z,53.42
2019-05-06T10:59:24.594Z,53.04
2019-05-06T11:00:25.390Z,52.78
2019-05-06T11:01:25.496Z,52.3
2019-05-06T11:02:23.302Z,52.2
2019-05-06T11:03:27.518Z,51.92
2019-05-06T11:04:24.921Z,50.8
2019-05-06T11:05:22.795Z,50.42
2019-05-06T11:06:24.581Z,50.68
2019-05-06T11:07:35.281Z,51.06
2019-05-06T11:08:24.530Z,50.59
2019-05-06T11:09:25.095Z,49.54
2019-05-06T11:10:37.625Z,48.78
2019-05-06T11:11:38.614Z,48.3
2019-05-06T11:12:24.328Z,48.37
2019-05-06T11:13:24.395Z,48.85
2019-05-06T11:14:25.368Z,49.71
2019-05-06T11:15:25.611Z,50.27
2019-05-06T11:16:26.050Z,50.37
2019-05-06T11:17:25.592Z,50.66
2019-05-06T11:18:25.759Z,50.94
2019-05-06T11:19:24.786Z,50.94
2019-05-06T11:20:24.093Z,50.94
2019-05-06T11:21:25.132Z,51.23
2019-05-06T11:22:26.557Z,51.14
2019-05-06T11:23:24.368Z,51.42
2019-05-06T11:24:23.099Z,50.85
2019-05-06T11:25:23.074Z,50.56
2019-05-06T11:26:23.659Z,50.25
2019-05-06T11:27:37.102Z,50.44
2019-05-06T11:28:22.607Z,50.6
2019-05-06T11:29:22.596Z,50.99
2019-05-06T11:30:24.871Z,51.27
2019-05-06T11:31:22.936Z,51.56
2019-05-06T11:32:26.033Z,52.03
2019-05-06T11:33:24.735Z,52.41
2019-05-06T11:34:24.659Z,52.51
2019-05-06T11:35:25.254Z,52.8
2019-05-06T11:36:25.377Z,53.17
2019-05-06T11:37:23.161Z,53.27
2019-05-06T11:38:22.825Z,53.34
2019-05-06T11:39:25.871Z,53.53
2019-05-06T11:40:23.453Z,53.24
2019-05-06T11:41:23.337Z,52.96
2019-05-06T11:42:35.755Z,53.05
2019-05-06T11:43:22.846Z,53.24
2019-05-06T11:44:23.825Z,53.53
2019-05-06T11:45:22.926Z,53.63
2019-05-06T11:46:22.904Z,53.81
2019-05-06T11:47:23.234Z,54.19
2019-05-06T11:48:24.777Z,54.48
2019-05-06T11:49:23.234Z,54.38
2019-05-06T11:50:24.348Z,54.19
2019-05-06T11:51:23.061Z,54.38
2019-05-06T11:52:24.978Z,54.67
2019-05-06T11:53:23.090Z,54.67
2019-05-06T11:54:26.801Z,54.29
2019-05-06T11:55:37.820Z,54.48
2019-05-06T11:56:23.015Z,54.64
2019-05-06T11:57:23.135Z,54.83
2019-05-06T11:58:24.751Z,55.21
2019-05-06T11:59:24.967Z,55.69
2019-05-06T12:00:23.892Z,55.69
2019-05-06T12:01:22.320Z,55.88
2019-05-06T12:02:22.312Z,55.97
2019-05-06T12:03:23.291Z,56.26
2019-05-06T12:04:24.872Z,56.73
2019-05-06T12:05:22.380Z,56.83
2019-05-06T12:06:25.018Z,56.83
2019-05-06T12:07:24.428Z,56.73
2019-05-06T12:08:24.572Z,56.35
2019-05-06T12:09:24.632Z,56.1
2019-05-06T12:10:22.509Z,56.19
2019-05-06T12:11:23.621Z,56.1
2019-05-06T12:12:23.260Z,56.1
2019-05-06T12:13:22.956Z,55.71
2019-05-06T12:14:22.625Z,55.71
2019-05-06T12:15:22.973Z,55.43
2019-05-06T12:16:28.241Z,55.24
2019-05-06T12:17:24.625Z,55.33
2019-05-06T12:18:25.533Z,55.62
2019-05-06T12:19:22.602Z,55.52
2019-05-06T12:20:24.598Z,55.52
2019-05-06T12:21:23.108Z,55.24
2019-05-06T12:22:24.505Z,55.43
2019-05-06T12:23:24.833Z,55.43
2019-05-06T12:24:22.868Z,55.05
2019-05-06T12:25:26.021Z,54
2019-05-06T12:26:22.087Z,53.72
2019-05-06T12:27:22.076Z,53.84
2019-05-06T12:28:22.084Z,53.46
2019-05-06T12:29:22.059Z,52.98
2019-05-06T12:30:22.971Z,51.75
2019-05-06T12:31:23.302Z,51.1
2019-05-06T12:32:24.908Z,51.2
2019-05-06T12:33:22.272Z,50.82
2019-05-06T12:34:22.013Z,50.25
2019-05-06T12:35:22.005Z,50.15
2019-05-06T12:36:21.990Z,49.49
2019-05-06T12:37:21.991Z,49.87
2019-05-06T12:38:32.694Z,50.06
2019-05-06T12:39:24.807Z,49.96
2019-05-06T12:40:21.956Z,50.25
2019-05-06T12:41:22.968Z,50.25
2019-05-06T12:42:23.175Z,49.8
2019-05-06T12:43:22.527Z,49.23
2019-05-06T12:44:23.036Z,48.85
2019-05-06T12:45:23.149Z,48.21
2019-05-06T12:46:22.470Z,46.97
2019-05-06T12:47:21.894Z,46.13
2019-05-06T12:48:21.888Z,45.65
2019-05-06T12:49:21.876Z,44.92
2019-05-06T12:50:22.667Z,44.15
2019-05-06T12:51:22.700Z,44.25
2019-05-06T12:52:23.066Z,43.29
2019-05-06T12:53:23.129Z,42.53
2019-05-06T12:54:22.364Z,43.01
2019-05-06T12:55:27.155Z,43.18
2019-05-06T12:56:21.826Z,43.56